Cross City, FL

2:07 PM EDT on August 29, 2016 (GMT -0400)
Cross City | | Change Station

Elev 43 ft 29.64 °N, 83.10 °W | Updated 12 minutes ago

Mostly Cloudy
Mostly Cloudy
91 °F
Feels Like 100 °F
N
8
Wind Variable Wind from NE

Today
High -- | Low -- °F
--% Chance of Precip.
Yesterday
High -- | Low -- °F
Precip. -- in
Pressure 29.97 in
Visibility 10.0 miles
Clouds Scattered Clouds 4400 ft
Scattered Clouds 5000 ft
Mostly Cloudy 6000 ft
Heat Index 100 °F
Dew Point 73 °F
Humidity 55%
Rainfall 0.00 in
Snow Depth Not available.
7:08 AM 7:57 PM
Waning Crescent, 7% visible
METAR KCTY 291755Z AUTO 05007KT 10SM SCT044 SCT050 BKN060 33/23 A2997 RMK AO2 LTG DSNT E
Pressure 29.97 in
Visibility 10.0 miles
Clouds Scattered Clouds 4400 ft
Scattered Clouds 5000 ft
Mostly Cloudy 6000 ft
Heat Index 100 °F
Dew Point 73 °F
Humidity 55%
Rainfall 0.00 in
Snow Depth Not available.
7:08 AM 7:57 PM
Waning Crescent, 7% visible
METAR KCTY 291755Z AUTO 05007KT 10SM SCT044 SCT050 BKN060 33/23 A2997 RMK AO2 LTG DSNT E
Tropical Depression Nine was centered about 170 miles west-southwest of Key West, Florida, as of late Monday morning. The depression may struggle a bit in the southern Gulf of Mexico before finally making a Gulf Coast landfall later this week with soaking rain and gusty winds.

This latest system was designated a tropical depression Sunday after a Hurricane Hunter reconnaissance mission finally found a sufficiently organized low-pressure center with collocated shower and thunderstorm activity.

10-Day Weather Forecast

Almanac

Astronomy

Aug. 29, 2016 Rise Set
Actual Time
Civil Twilight
Nautical Twilight
Astronomical Twilight
Moon
Length of Visible Light
Length of Day
Tomorrow will be .
, % of the Moon is Illuminated

Today's Extremes

State Highs State Lows

Community

WunderPhotos

Upload Photos

1,935,685 photos uploaded!

WunderBlog® & News

Nearby

Air Quality

  Air Quality AQ Index Pollutant
Not available.

Snow Depth

Station Depth Elevation

Earthquake Activity

City Distance Mag. Time & Date
Minimum magnitude displayed is 2.5.

Coastal Water Temperatures

Place Temperature

Stations

Nearby Weather Stations

Station Location Temp. Windchill Dew Point Humidity Wind Precip. Elev Updated Type
                   

Watches & Warnings

There are currently no watches in effect.